sensor_id;sensor_type;location;lat;lon;timestamp;temperature;humidity
7143;DHT22;3613;48.902;9.204;2022-12-05T00:02:20;3.50;99.90
7143;DHT22;3613;48.902;9.204;2022-12-05T00:04:48;3.50;99.90
7143;DHT22;3613;48.902;9.204;2022-12-05T00:07:16;3.50;99.90
7143;DHT22;3613;48.902;9.204;2022-12-05T00:09:42;3.60;99.90
7143;DHT22;3613;48.902;9.204;2022-12-05T00:12:07;3.70;99.90
7143;DHT22;3613;48.902;9.204;2022-12-05T00:14:33;3.60;99.90
7143;DHT22;3613;48.902;9.204;2022-12-05T00:17:01;3.60;99.90
7143;DHT22;3613;48.902;9.204;2022-12-05T00:19:27;3.50;99.90
7143;DHT22;3613;48.902;9.204;2022-12-05T00:21:52;3.50;99.90
7143;DHT22;3613;48.902;9.204;2022-12-05T00:24:18;3.90;99.90
7143;DHT22;3613;48.902;9.204;2022-12-05T00:26:45;3.50;99.90
7143;DHT22;3613;48.902;9.204;2022-12-05T00:29:10;3.50;99.90
7143;DHT22;3613;48.902;9.204;2022-12-05T00:31:36;3.50;99.90
7143;DHT22;3613;48.902;9.204;2022-12-05T00:34:02;3.50;99.90
7143;DHT22;3613;48.902;9.204;2022-12-05T00:36:30;3.60;99.90
7143;DHT22;3613;48.902;9.204;2022-12-05T00:39:01;3.60;99.90
7143;DHT22;3613;48.902;9.204;2022-12-05T00:41:28;3.60;99.90
7143;DHT22;3613;48.902;9.204;2022-12-05T00:43:54;3.60;99.90
7143;DHT22;3613;48.902;9.204;2022-12-05T00:46:24;3.60;99.90
7143;DHT22;3613;48.902;9.204;2022-12-05T00:48:54;3.60;99.90
7143;DHT22;3613;48.902;9.204;2022-12-05T00:51:22;3.60;99.90
7143;DHT22;3613;48.902;9.204;2022-12-05T00:53:48;3.70;99.90
7143;DHT22;3613;48.902;9.204;2022-12-05T00:56:17;3.70;99.90
7143;DHT22;3613;48.902;9.204;2022-12-05T00:58:43;3.70;99.90
7143;DHT22;3613;48.902;9.204;2022-12-05T01:01:18;3.70;99.90
7143;DHT22;3613;48.902;9.204;2022-12-05T01:03:47;3.70;99.90
7143;DHT22;3613;48.902;9.204;2022-12-05T01:06:16;3.80;99.90
7143;DHT22;3613;48.902;9.204;2022-12-05T01:08:42;3.70;99.90
7143;DHT22;3613;48.902;9.204;2022-12-05T01:11:10;3.70;99.90
7143;DHT22;3613;48.902;9.204;2022-12-05T01:13:38;6.60;99.90
7143;DHT22;3613;48.902;9.204;2022-12-05T01:16:04;3.70;99.90
7143;DHT22;3613;48.902;9.204;2022-12-05T01:18:30;3.60;99.90
7143;DHT22;3613;48.902;9.204;2022-12-05T01:20:58;3.60;99.90
7143;DHT22;3613;48.902;9.204;2022-12-05T01:23:24;3.50;99.90
7143;DHT22;3613;48.902;9.204;2022-12-05T01:25:52;3.60;99.90
7143;DHT22;3613;48.902;9.204;2022-12-05T01:28:18;3.60;99.90
7143;DHT22;3613;48.902;9.204;2022-12-05T01:30:47;3.70;99.90
7143;DHT22;3613;48.902;9.204;2022-12-05T01:33:13;3.60;99.90
7143;DHT22;3613;48.902;9.204;2022-12-05T01:35:39;3.60;99.90
7143;DHT22;3613;48.902;9.204;2022-12-05T01:38:06;3.60;99.90
7143;DHT22;3613;48.902;9.204;2022-12-05T01:40:33;3.50;99.90
7143;DHT22;3613;48.902;9.204;2022-12-05T01:43:00;3.60;99.90
7143;DHT22;3613;48.902;9.204;2022-12-05T01:45:33;3.50;99.90
7143;DHT22;3613;48.902;9.204;2022-12-05T01:48:05;3.50;99.90
7143;DHT22;3613;48.902;9.204;2022-12-05T01:50:35;3.50;99.90
7143;DHT22;3613;48.902;9.204;2022-12-05T01:53:04;3.50;99.90
7143;DHT22;3613;48.902;9.204;2022-12-05T01:55:30;3.50;99.90
7143;DHT22;3613;48.902;9.204;2022-12-05T01:57:56;3.50;99.90
7143;DHT22;3613;48.902;9.204;2022-12-05T02:00:22;3.40;99.90
7143;DHT22;3613;48.902;9.204;2022-12-05T02:02:51;3.40;99.90
7143;DHT22;3613;48.902;9.204;2022-12-05T02:05:24;3.30;99.90
7143;DHT22;3613;48.902;9.204;2022-12-05T02:07:51;3.20;99.90
7143;DHT22;3613;48.902;9.204;2022-12-05T02:10:18;3.20;99.90
7143;DHT22;3613;48.902;9.204;2022-12-05T02:12:44;3.20;99.90
7143;DHT22;3613;48.902;9.204;2022-12-05T02:34:02;3.20;99.90
7143;DHT22;3613;48.902;9.204;2022-12-05T02:36:46;3.30;99.90
7143;DHT22;3613;48.902;9.204;2022-12-05T02:39:18;3.30;99.90
7143;DHT22;3613;48.902;9.204;2022-12-05T02:44:27;5.50;99.90
7143;DHT22;3613;48.902;9.204;2022-12-05T02:46:59;3.30;99.90
7143;DHT22;3613;48.902;9.204;2022-12-05T02:49:30;3.50;99.90
7143;DHT22;3613;48.902;9.204;2022-12-05T02:51:59;3.40;99.90
7143;DHT22;3613;48.902;9.204;2022-12-05T02:54:32;3.40;99.90
7143;DHT22;3613;48.902;9.204;2022-12-05T02:57:00;3.40;99.90
7143;DHT22;3613;48.902;9.204;2022-12-05T02:59:25;3.40;99.90
7143;DHT22;3613;48.902;9.204;2022-12-05T03:01:51;3.40;99.90
7143;DHT22;3613;48.902;9.204;2022-12-05T03:04:19;3.50;99.90
7143;DHT22;3613;48.902;9.204;2022-12-05T03:06:50;3.50;99.90
7143;DHT22;3613;48.902;9.204;2022-12-05T03:09:21;3.50;99.90
7143;DHT22;3613;48.902;9.204;2022-12-05T03:11:51;3.50;99.90
7143;DHT22;3613;48.902;9.204;2022-12-05T03:14:22;3.50;99.90
7143;DHT22;3613;48.902;9.204;2022-12-05T03:16:52;3.60;99.90
7143;DHT22;3613;48.902;9.204;2022-12-05T03:19:34;3.60;99.90
7143;DHT22;3613;48.902;9.204;2022-12-05T03:22:51;3.60;99.90
7143;DHT22;3613;48.902;9.204;2022-12-05T03:24:54;3.60;99.90
7143;DHT22;3613;48.902;9.204;2022-12-05T03:30:08;3.70;99.90
7143;DHT22;3613;48.902;9.204;2022-12-05T03:33:02;3.70;99.90
7143;DHT22;3613;48.902;9.204;2022-12-05T03:35:48;3.70;99.90
7143;DHT22;3613;48.902;9.204;2022-12-05T03:38:24;3.70;99.90
7143;DHT22;3613;48.902;9.204;2022-12-05T03:44:11;3.70;99.90
7143;DHT22;3613;48.902;9.204;2022-12-05T03:46:54;3.70;99.90
7143;DHT22;3613;48.902;9.204;2022-12-05T03:49:35;3.80;99.90
7143;DHT22;3613;48.902;9.204;2022-12-05T03:52:11;3.70;99.90
7143;DHT22;3613;48.902;9.204;2022-12-05T03:54:43;3.70;99.90
7143;DHT22;3613;48.902;9.204;2022-12-05T03:57:15;3.70;99.90
7143;DHT22;3613;48.902;9.204;2022-12-05T03:59:58;3.70;99.90
7143;DHT22;3613;48.902;9.204;2022-12-05T04:08:19;3.90;99.90
7143;DHT22;3613;48.902;9.204;2022-12-05T04:10:49;3.90;99.90
7143;DHT22;3613;48.902;9.204;2022-12-05T04:13:22;3.90;99.90
7143;DHT22;3613;48.902;9.204;2022-12-05T04:16:00;3.80;99.90
7143;DHT22;3613;48.902;9.204;2022-12-05T04:21:50;3.80;99.90
7143;DHT22;3613;48.902;9.204;2022-12-05T04:24:24;3.80;99.90
7143;DHT22;3613;48.902;9.204;2022-12-05T04:27:26;3.80;99.90
7143;DHT22;3613;48.902;9.204;2022-12-05T04:32:29;3.80;99.90
7143;DHT22;3613;48.902;9.204;2022-12-05T04:34:59;3.80;99.90
7143;DHT22;3613;48.902;9.204;2022-12-05T04:37:29;3.80;99.90
7143;DHT22;3613;48.902;9.204;2022-12-05T04:40:03;3.80;99.90
7143;DHT22;3613;48.902;9.204;2022-12-05T04:42:31;3.80;99.90
7143;DHT22;3613;48.902;9.204;2022-12-05T04:45:02;3.70;99.90
7143;DHT22;3613;48.902;9.204;2022-12-05T04:47:34;3.30;99.90
7143;DHT22;3613;48.902;9.204;2022-12-05T04:50:02;3.70;99.90
7143;DHT22;3613;48.902;9.204;2022-12-05T04:52:31;4.00;99.90
7143;DHT22;3613;48.902;9.204;2022-12-05T04:55:07;3.60;99.90
7143;DHT22;3613;48.902;9.204;2022-12-05T04:57:44;3.60;99.90
7143;DHT22;3613;48.902;9.204;2022-12-05T05:00:14;3.60;99.90
7143;DHT22;3613;48.902;9.204;2022-12-05T05:02:46;3.60;99.90
7143;DHT22;3613;48.902;9.204;2022-12-05T05:05:16;3.70;99.90
7143;DHT22;3613;48.902;9.204;2022-12-05T05:07:49;3.70;99.90
7143;DHT22;3613;48.902;9.204;2022-12-05T05:10:28;3.70;99.90
7143;DHT22;3613;48.902;9.204;2022-12-05T05:12:55;3.70;99.90
7143;DHT22;3613;48.902;9.204;2022-12-05T05:15:21;3.80;99.90
7143;DHT22;3613;48.902;9.204;2022-12-05T05:17:46;3.80;99.90
7143;DHT22;3613;48.902;9.204;2022-12-05T05:20:14;3.80;99.90
7143;DHT22;3613;48.902;9.204;2022-12-05T05:22:53;3.80;99.90
7143;DHT22;3613;48.902;9.204;2022-12-05T05:25:20;3.70;99.90
7143;DHT22;3613;48.902;9.204;2022-12-05T05:27:54;3.70;99.90
7143;DHT22;3613;48.902;9.204;2022-12-05T05:30:22;3.80;99.90
7143;DHT22;3613;48.902;9.204;2022-12-05T05:32:48;3.70;99.90
7143;DHT22;3613;48.902;9.204;2022-12-05T05:35:15;3.70;99.90
7143;DHT22;3613;48.902;9.204;2022-12-05T05:37:41;3.70;99.90
7143;DHT22;3613;48.902;9.204;2022-12-05T05:40:11;3.70;99.90
7143;DHT22;3613;48.902;9.204;2022-12-05T05:42:43;3.70;99.90
7143;DHT22;3613;48.902;9.204;2022-12-05T05:45:15;3.70;99.90
7143;DHT22;3613;48.902;9.204;2022-12-05T05:47:41;3.70;99.90
7143;DHT22;3613;48.902;9.204;2022-12-05T05:50:08;3.70;99.90
7143;DHT22;3613;48.902;9.204;2022-12-05T05:52:35;3.70;99.90
7143;DHT22;3613;48.902;9.204;2022-12-05T05:55:05;3.70;99.90
7143;DHT22;3613;48.902;9.204;2022-12-05T05:57:34;3.80;99.90
7143;DHT22;3613;48.902;9.204;2022-12-05T05:59:59;3.80;99.90
7143;DHT22;3613;48.902;9.204;2022-12-05T06:02:29;3.90;99.90
7143;DHT22;3613;48.902;9.204;2022-12-05T06:04:57;3.90;99.90
7143;DHT22;3613;48.902;9.204;2022-12-05T06:07:23;3.80;99.90
7143;DHT22;3613;48.902;9.204;2022-12-05T06:09:49;4.20;99.90
7143;DHT22;3613;48.902;9.204;2022-12-05T06:12:14;3.80;99.90
7143;DHT22;3613;48.902;9.204;2022-12-05T06:14:42;3.90;99.90
7143;DHT22;3613;48.902;9.204;2022-12-05T06:17:08;3.90;99.90
7143;DHT22;3613;48.902;9.204;2022-12-05T06:19:34;4.00;99.90
7143;DHT22;3613;48.902;9.204;2022-12-05T06:21:59;3.90;99.90
7143;DHT22;3613;48.902;9.204;2022-12-05T06:24:25;3.90;99.90
7143;DHT22;3613;48.902;9.204;2022-12-05T06:26:51;3.90;99.90
7143;DHT22;3613;48.902;9.204;2022-12-05T06:29:16;3.90;99.90
7143;DHT22;3613;48.902;9.204;2022-12-05T06:31:42;4.00;99.90
7143;DHT22;3613;48.902;9.204;2022-12-05T06:34:12;3.80;99.90
7143;DHT22;3613;48.902;9.204;2022-12-05T06:36:37;3.80;99.90
7143;DHT22;3613;48.902;9.204;2022-12-05T06:39:03;3.90;99.90
7143;DHT22;3613;48.902;9.204;2022-12-05T06:41:31;3.90;99.90
7143;DHT22;3613;48.902;9.204;2022-12-05T06:43:58;3.90;99.90
7143;DHT22;3613;48.902;9.204;2022-12-05T06:46:26;4.00;99.90
7143;DHT22;3613;48.902;9.204;2022-12-05T06:48:52;4.00;99.90
7143;DHT22;3613;48.902;9.204;2022-12-05T06:51:19;4.00;99.90
7143;DHT22;3613;48.902;9.204;2022-12-05T06:53:45;4.10;99.90
7143;DHT22;3613;48.902;9.204;2022-12-05T06:56:14;4.00;99.90
7143;DHT22;3613;48.902;9.204;2022-12-05T06:58:41;5.80;99.90
7143;DHT22;3613;48.902;9.204;2022-12-05T07:01:14;4.00;99.90
7143;DHT22;3613;48.902;9.204;2022-12-05T07:03:59;4.10;99.90
7143;DHT22;3613;48.902;9.204;2022-12-05T07:06:25;4.10;99.90
7143;DHT22;3613;48.902;9.204;2022-12-05T07:08:51;4.00;99.90
7143;DHT22;3613;48.902;9.204;2022-12-05T07:11:17;4.10;99.90
7143;DHT22;3613;48.902;9.204;2022-12-05T07:13:43;4.10;99.90
7143;DHT22;3613;48.902;9.204;2022-12-05T07:16:08;4.20;99.90
7143;DHT22;3613;48.902;9.204;2022-12-05T07:18:36;4.20;99.90
7143;DHT22;3613;48.902;9.204;2022-12-05T07:21:04;4.20;99.90
7143;DHT22;3613;48.902;9.204;2022-12-05T07:23:30;4.30;99.90
7143;DHT22;3613;48.902;9.204;2022-12-05T07:25:56;4.30;99.90
7143;DHT22;3613;48.902;9.204;2022-12-05T07:28:22;4.30;99.90
7143;DHT22;3613;48.902;9.204;2022-12-05T07:30:48;6.70;99.90
7143;DHT22;3613;48.902;9.204;2022-12-05T07:33:14;4.40;99.90
7143;DHT22;3613;48.902;9.204;2022-12-05T07:35:39;4.40;99.90
7143;DHT22;3613;48.902;9.204;2022-12-05T07:38:07;4.50;99.90
7143;DHT22;3613;48.902;9.204;2022-12-05T07:40:33;4.50;99.90
7143;DHT22;3613;48.902;9.204;2022-12-05T07:42:59;4.70;99.90
7143;DHT22;3613;48.902;9.204;2022-12-05T07:45:27;4.60;99.90
7143;DHT22;3613;48.902;9.204;2022-12-05T07:47:52;4.60;99.90
7143;DHT22;3613;48.902;9.204;2022-12-05T07:50:20;4.60;99.90
7143;DHT22;3613;48.902;9.204;2022-12-05T07:52:46;4.60;99.90
7143;DHT22;3613;48.902;9.204;2022-12-05T07:55:14;4.60;99.90
7143;DHT22;3613;48.902;9.204;2022-12-05T07:57:39;4.70;99.90
7143;DHT22;3613;48.902;9.204;2022-12-05T08:00:08;4.80;99.90
7143;DHT22;3613;48.902;9.204;2022-12-05T08:02:33;4.70;99.90
7143;DHT22;3613;48.902;9.204;2022-12-05T08:04:59;4.70;99.90
7143;DHT22;3613;48.902;9.204;2022-12-05T08:07:24;4.70;99.90
7143;DHT22;3613;48.902;9.204;2022-12-05T08:09:50;4.80;99.90
7143;DHT22;3613;48.902;9.204;2022-12-05T08:12:16;4.90;99.90
7143;DHT22;3613;48.902;9.204;2022-12-05T08:14:41;4.80;99.90
7143;DHT22;3613;48.902;9.204;2022-12-05T08:17:09;5.10;99.90
7143;DHT22;3613;48.902;9.204;2022-12-05T08:19:35;4.80;99.90
7143;DHT22;3613;48.902;9.204;2022-12-05T08:22:00;4.80;99.90
7143;DHT22;3613;48.902;9.204;2022-12-05T08:24:26;6.10;99.90
7143;DHT22;3613;48.902;9.204;2022-12-05T08:26:54;4.80;99.90
7143;DHT22;3613;48.902;9.204;2022-12-05T08:29:20;4.90;99.90
7143;DHT22;3613;48.902;9.204;2022-12-05T08:31:48;4.80;99.90
7143;DHT22;3613;48.902;9.204;2022-12-05T08:34:15;4.70;99.90
7143;DHT22;3613;48.902;9.204;2022-12-05T08:36:42;4.70;99.90
7143;DHT22;3613;48.902;9.204;2022-12-05T08:39:10;4.80;99.90
7143;DHT22;3613;48.902;9.204;2022-12-05T08:41:38;4.80;99.90
7143;DHT22;3613;48.902;9.204;2022-12-05T08:44:05;4.80;99.90
7143;DHT22;3613;48.902;9.204;2022-12-05T08:46:32;4.90;99.90
7143;DHT22;3613;48.902;9.204;2022-12-05T08:48:58;4.90;99.90
7143;DHT22;3613;48.902;9.204;2022-12-05T08:51:26;4.90;99.90
7143;DHT22;3613;48.902;9.204;2022-12-05T08:53:52;5.00;99.90
7143;DHT22;3613;48.902;9.204;2022-12-05T08:56:18;4.90;99.90
7143;DHT22;3613;48.902;9.204;2022-12-05T08:58:43;4.90;99.90
7143;DHT22;3613;48.902;9.204;2022-12-05T09:01:18;4.80;99.90
7143;DHT22;3613;48.902;9.204;2022-12-05T09:03:47;7.40;99.90
7143;DHT22;3613;48.902;9.204;2022-12-05T09:08:41;4.80;99.90
7143;DHT22;3613;48.902;9.204;2022-12-05T09:11:14;4.80;99.90
7143;DHT22;3613;48.902;9.204;2022-12-05T09:13:40;4.80;99.90
7143;DHT22;3613;48.902;9.204;2022-12-05T09:16:12;4.90;99.90
7143;DHT22;3613;48.902;9.204;2022-12-05T09:18:39;5.00;99.90
7143;DHT22;3613;48.902;9.204;2022-12-05T09:21:10;5.00;99.90
7143;DHT22;3613;48.902;9.204;2022-12-05T09:23:36;4.90;99.90
7143;DHT22;3613;48.902;9.204;2022-12-05T09:26:05;4.90;99.90
7143;DHT22;3613;48.902;9.204;2022-12-05T09:28:32;5.00;99.90
7143;DHT22;3613;48.902;9.204;2022-12-05T09:31:00;5.10;99.90
7143;DHT22;3613;48.902;9.204;2022-12-05T09:33:27;4.90;99.90
7143;DHT22;3613;48.902;9.204;2022-12-05T09:35:53;4.90;99.90
7143;DHT22;3613;48.902;9.204;2022-12-05T09:38:22;4.90;99.90
7143;DHT22;3613;48.902;9.204;2022-12-05T09:43:45;5.00;99.90
7143;DHT22;3613;48.902;9.204;2022-12-05T09:46:23;5.10;99.90
7143;DHT22;3613;48.902;9.204;2022-12-05T09:48:56;5.00;99.90
7143;DHT22;3613;48.902;9.204;2022-12-05T09:51:22;5.00;99.90
7143;DHT22;3613;48.902;9.204;2022-12-05T09:53:52;4.90;99.90
7143;DHT22;3613;48.902;9.204;2022-12-05T09:56:29;4.80;99.90
7143;DHT22;3613;48.902;9.204;2022-12-05T09:58:56;4.80;99.90
7143;DHT22;3613;48.902;9.204;2022-12-05T10:11:57;5.10;99.90
7143;DHT22;3613;48.902;9.204;2022-12-05T10:17:02;5.30;99.90
7143;DHT22;3613;48.902;9.204;2022-12-05T10:19:34;5.40;99.90
7143;DHT22;3613;48.902;9.204;2022-12-05T10:22:09;5.50;99.90
7143;DHT22;3613;48.902;9.204;2022-12-05T10:24:46;5.60;99.90
7143;DHT22;3613;48.902;9.204;2022-12-05T10:27:27;5.60;99.90
7143;DHT22;3613;48.902;9.204;2022-12-05T10:30:00;5.60;99.90
7143;DHT22;3613;48.902;9.204;2022-12-05T10:32:37;5.70;99.90
7143;DHT22;3613;48.902;9.204;2022-12-05T10:35:15;5.60;99.90
7143;DHT22;3613;48.902;9.204;2022-12-05T10:37:47;5.50;99.90
7143;DHT22;3613;48.902;9.204;2022-12-05T10:40:16;5.40;99.90
7143;DHT22;3613;48.902;9.204;2022-12-05T10:42:42;5.40;99.90
7143;DHT22;3613;48.902;9.204;2022-12-05T10:45:20;5.30;99.90
7143;DHT22;3613;48.902;9.204;2022-12-05T10:47:47;5.30;99.90
7143;DHT22;3613;48.902;9.204;2022-12-05T10:52:51;5.30;99.90
7143;DHT22;3613;48.902;9.204;2022-12-05T10:55:18;5.30;99.90
7143;DHT22;3613;48.902;9.204;2022-12-05T10:57:51;5.50;99.90
7143;DHT22;3613;48.902;9.204;2022-12-05T11:00:22;5.50;99.90
7143;DHT22;3613;48.902;9.204;2022-12-05T11:02:52;5.60;99.90
7143;DHT22;3613;48.902;9.204;2022-12-05T11:05:27;5.80;99.90
7143;DHT22;3613;48.902;9.204;2022-12-05T11:07:56;5.90;99.90
7143;DHT22;3613;48.902;9.204;2022-12-05T11:10:33;5.90;99.90
7143;DHT22;3613;48.902;9.204;2022-12-05T11:13:16;5.90;99.90
7143;DHT22;3613;48.902;9.204;2022-12-05T11:15:47;6.10;99.90
7143;DHT22;3613;48.902;9.204;2022-12-05T11:20:49;6.40;99.90
7143;DHT22;3613;48.902;9.204;2022-12-05T11:23:27;6.60;99.90
7143;DHT22;3613;48.902;9.204;2022-12-05T11:25:54;6.60;99.90
7143;DHT22;3613;48.902;9.204;2022-12-05T11:33:40;7.10;99.90
7143;DHT22;3613;48.902;9.204;2022-12-05T11:36:16;7.10;99.90
7143;DHT22;3613;48.902;9.204;2022-12-05T11:38:43;7.00;99.90
7143;DHT22;3613;48.902;9.204;2022-12-05T11:44:13;7.00;99.90
7143;DHT22;3613;48.902;9.204;2022-12-05T11:47:02;7.00;99.90
7143;DHT22;3613;48.902;9.204;2022-12-05T12:11:42;6.60;99.90
7143;DHT22;3613;48.902;9.204;2022-12-05T12:14:32;6.70;99.90
7143;DHT22;3613;48.902;9.204;2022-12-05T12:26:03;6.50;99.90
7143;DHT22;3613;48.902;9.204;2022-12-05T12:31:06;6.70;99.90
7143;DHT22;3613;48.902;9.204;2022-12-05T12:36:37;6.90;99.90
7143;DHT22;3613;48.902;9.204;2022-12-05T12:47:03;6.90;99.90
7143;DHT22;3613;48.902;9.204;2022-12-05T12:50:08;6.80;99.90
7143;DHT22;3613;48.902;9.204;2022-12-05T12:58:42;6.90;99.90
7143;DHT22;3613;48.902;9.204;2022-12-05T13:08:50;6.50;99.90
7143;DHT22;3613;48.902;9.204;2022-12-05T13:11:19;6.50;99.90
7143;DHT22;3613;48.902;9.204;2022-12-05T13:13:52;6.50;99.90
7143;DHT22;3613;48.902;9.204;2022-12-05T13:16:27;6.40;99.90
7143;DHT22;3613;48.902;9.204;2022-12-05T13:18:55;6.50;99.90
7143;DHT22;3613;48.902;9.204;2022-12-05T13:21:22;6.60;99.90
7143;DHT22;3613;48.902;9.204;2022-12-05T13:23:50;6.50;99.90
7143;DHT22;3613;48.902;9.204;2022-12-05T13:26:16;6.50;99.90
7143;DHT22;3613;48.902;9.204;2022-12-05T13:28:52;6.50;99.90
7143;DHT22;3613;48.902;9.204;2022-12-05T13:31:37;6.60;99.90
7143;DHT22;3613;48.902;9.204;2022-12-05T13:34:02;6.50;99.90
7143;DHT22;3613;48.902;9.204;2022-12-05T13:36:38;6.70;99.90
7143;DHT22;3613;48.902;9.204;2022-12-05T13:39:23;6.50;99.90
7143;DHT22;3613;48.902;9.204;2022-12-05T13:42:28;6.40;99.90
7143;DHT22;3613;48.902;9.204;2022-12-05T13:45:17;6.50;99.90
7143;DHT22;3613;48.902;9.204;2022-12-05T13:50:50;6.40;99.90
7143;DHT22;3613;48.902;9.204;2022-12-05T13:56:02;6.30;99.90
7143;DHT22;3613;48.902;9.204;2022-12-05T13:58:57;6.10;99.90
7143;DHT22;3613;48.902;9.204;2022-12-05T14:09:01;5.70;99.90
7143;DHT22;3613;48.902;9.204;2022-12-05T14:11:27;5.70;99.90
7143;DHT22;3613;48.902;9.204;2022-12-05T14:19:19;5.70;99.90
7143;DHT22;3613;48.902;9.204;2022-12-05T14:24:26;5.70;99.90
7143;DHT22;3613;48.902;9.204;2022-12-05T14:27:10;5.70;99.90
7143;DHT22;3613;48.902;9.204;2022-12-05T14:30:00;5.70;99.90
7143;DHT22;3613;48.902;9.204;2022-12-05T14:32:38;5.80;99.90
7143;DHT22;3613;48.902;9.204;2022-12-05T14:35:47;5.90;99.90
7143;DHT22;3613;48.902;9.204;2022-12-05T14:38:28;5.80;99.90
7143;DHT22;3613;48.902;9.204;2022-12-05T14:41:28;5.90;99.90
7143;DHT22;3613;48.902;9.204;2022-12-05T14:46:27;5.80;99.90
7143;DHT22;3613;48.902;9.204;2022-12-05T14:48:55;5.70;99.90
7143;DHT22;3613;48.902;9.204;2022-12-05T14:54:27;5.70;99.90
7143;DHT22;3613;48.902;9.204;2022-12-05T14:57:09;5.60;99.90
7143;DHT22;3613;48.902;9.204;2022-12-05T14:59:50;5.70;99.90
7143;DHT22;3613;48.902;9.204;2022-12-05T15:02:30;5.70;99.90
7143;DHT22;3613;48.902;9.204;2022-12-05T15:07:32;5.60;99.90
7143;DHT22;3613;48.902;9.204;2022-12-05T15:10:16;5.60;99.90
7143;DHT22;3613;48.902;9.204;2022-12-05T15:12:48;5.60;99.90
7143;DHT22;3613;48.902;9.204;2022-12-05T15:21:01;7.80;99.90
7143;DHT22;3613;48.902;9.204;2022-12-05T15:24:13;5.50;99.90
7143;DHT22;3613;48.902;9.204;2022-12-05T15:26:49;5.50;99.90
7143;DHT22;3613;48.902;9.204;2022-12-05T15:31:53;5.50;99.90
7143;DHT22;3613;48.902;9.204;2022-12-05T15:34:33;5.50;99.90
7143;DHT22;3613;48.902;9.204;2022-12-05T15:42:36;3.20;99.90
7143;DHT22;3613;48.902;9.204;2022-12-05T15:47:38;5.50;99.90
7143;DHT22;3613;48.902;9.204;2022-12-05T15:50:04;5.40;99.90
7143;DHT22;3613;48.902;9.204;2022-12-05T15:52:51;5.40;99.90
7143;DHT22;3613;48.902;9.204;2022-12-05T15:55:34;5.40;99.90
7143;DHT22;3613;48.902;9.204;2022-12-05T15:58:11;5.30;99.90
7143;DHT22;3613;48.902;9.204;2022-12-05T16:00:43;5.30;99.90
7143;DHT22;3613;48.902;9.204;2022-12-05T16:03:39;5.40;99.90
7143;DHT22;3613;48.902;9.204;2022-12-05T16:08:54;5.40;99.90
7143;DHT22;3613;48.902;9.204;2022-12-05T16:11:23;5.40;99.90
7143;DHT22;3613;48.902;9.204;2022-12-05T16:14:02;5.40;99.90
7143;DHT22;3613;48.902;9.204;2022-12-05T16:16:34;5.30;99.90
7143;DHT22;3613;48.902;9.204;2022-12-05T16:19:06;5.30;99.90
7143;DHT22;3613;48.902;9.204;2022-12-05T16:21:45;5.30;99.90
7143;DHT22;3613;48.902;9.204;2022-12-05T16:24:18;5.30;99.90
7143;DHT22;3613;48.902;9.204;2022-12-05T16:26:56;5.40;99.90
7143;DHT22;3613;48.902;9.204;2022-12-05T16:29:30;5.40;99.90
7143;DHT22;3613;48.902;9.204;2022-12-05T16:31:58;5.40;99.90
7143;DHT22;3613;48.902;9.204;2022-12-05T16:34:25;5.40;99.90
7143;DHT22;3613;48.902;9.204;2022-12-05T16:36:52;5.40;99.90
7143;DHT22;3613;48.902;9.204;2022-12-05T16:39:19;5.40;99.90
7143;DHT22;3613;48.902;9.204;2022-12-05T16:41:48;5.40;99.90
7143;DHT22;3613;48.902;9.204;2022-12-05T16:46:58;5.40;99.90
7143;DHT22;3613;48.902;9.204;2022-12-05T16:49:33;5.40;99.90
7143;DHT22;3613;48.902;9.204;2022-12-05T16:52:02;5.40;99.90
7143;DHT22;3613;48.902;9.204;2022-12-05T16:54:28;5.40;99.90
7143;DHT22;3613;48.902;9.204;2022-12-05T16:56:57;5.40;99.90
7143;DHT22;3613;48.902;9.204;2022-12-05T16:59:28;5.40;99.90
7143;DHT22;3613;48.902;9.204;2022-12-05T17:01:55;5.40;99.90
7143;DHT22;3613;48.902;9.204;2022-12-05T17:04:20;5.30;99.90
7143;DHT22;3613;48.902;9.204;2022-12-05T17:06:46;5.30;99.90
7143;DHT22;3613;48.902;9.204;2022-12-05T17:09:14;5.20;99.90
7143;DHT22;3613;48.902;9.204;2022-12-05T17:11:44;5.20;99.90
7143;DHT22;3613;48.902;9.204;2022-12-05T17:14:17;5.20;99.90
7143;DHT22;3613;48.902;9.204;2022-12-05T17:19:10;5.20;99.90
7143;DHT22;3613;48.902;9.204;2022-12-05T17:21:40;5.10;99.90
7143;DHT22;3613;48.902;9.204;2022-12-05T17:24:14;5.20;99.90
7143;DHT22;3613;48.902;9.204;2022-12-05T17:26:40;5.10;99.90
7143;DHT22;3613;48.902;9.204;2022-12-05T17:29:06;5.10;99.90
7143;DHT22;3613;48.902;9.204;2022-12-05T17:31:34;5.10;99.90
7143;DHT22;3613;48.902;9.204;2022-12-05T17:34:00;5.10;99.90
7143;DHT22;3613;48.902;9.204;2022-12-05T17:36:26;5.10;99.90
7143;DHT22;3613;48.902;9.204;2022-12-05T17:38:51;5.10;99.90
7143;DHT22;3613;48.902;9.204;2022-12-05T17:41:19;5.10;99.90
7143;DHT22;3613;48.902;9.204;2022-12-05T17:43:46;5.10;99.90
7143;DHT22;3613;48.902;9.204;2022-12-05T17:46:19;5.10;99.90
7143;DHT22;3613;48.902;9.204;2022-12-05T17:48:50;5.10;99.90
7143;DHT22;3613;48.902;9.204;2022-12-05T17:51:16;5.00;99.90
7143;DHT22;3613;48.902;9.204;2022-12-05T17:53:42;5.10;99.90
7143;DHT22;3613;48.902;9.204;2022-12-05T17:56:14;5.10;99.90
7143;DHT22;3613;48.902;9.204;2022-12-05T17:58:40;5.10;99.90
7143;DHT22;3613;48.902;9.204;2022-12-05T18:01:08;5.00;99.90
7143;DHT22;3613;48.902;9.204;2022-12-05T18:03:40;5.00;99.90
7143;DHT22;3613;48.902;9.204;2022-12-05T18:06:08;5.00;99.90
7143;DHT22;3613;48.902;9.204;2022-12-05T18:08:34;4.90;99.90
7143;DHT22;3613;48.902;9.204;2022-12-05T18:11:04;4.90;99.90
7143;DHT22;3613;48.902;9.204;2022-12-05T18:13:32;4.80;99.90
7143;DHT22;3613;48.902;9.204;2022-12-05T18:16:01;4.80;99.90
7143;DHT22;3613;48.902;9.204;2022-12-05T18:18:27;4.80;99.90
7143;DHT22;3613;48.902;9.204;2022-12-05T18:21:05;4.70;99.90
7143;DHT22;3613;48.902;9.204;2022-12-05T18:23:37;4.70;99.90
7143;DHT22;3613;48.902;9.204;2022-12-05T18:26:03;4.40;99.90
7143;DHT22;3613;48.902;9.204;2022-12-05T18:28:29;4.30;99.90
7143;DHT22;3613;48.902;9.204;2022-12-05T18:31:11;4.20;99.90
7143;DHT22;3613;48.902;9.204;2022-12-05T18:33:38;4.00;99.90
7143;DHT22;3613;48.902;9.204;2022-12-05T18:36:12;3.90;99.90
7143;DHT22;3613;48.902;9.204;2022-12-05T18:38:42;3.80;99.90
7143;DHT22;3613;48.902;9.204;2022-12-05T18:41:08;3.80;99.90
7143;DHT22;3613;48.902;9.204;2022-12-05T18:46:06;3.80;99.90
7143;DHT22;3613;48.902;9.204;2022-12-05T18:48:33;3.80;99.90
7143;DHT22;3613;48.902;9.204;2022-12-05T18:51:11;3.90;99.90
7143;DHT22;3613;48.902;9.204;2022-12-05T18:53:37;4.00;99.90
7143;DHT22;3613;48.902;9.204;2022-12-05T18:56:07;4.10;99.90
7143;DHT22;3613;48.902;9.204;2022-12-05T18:58:33;4.20;99.90
7143;DHT22;3613;48.902;9.204;2022-12-05T19:01:11;4.20;99.90
7143;DHT22;3613;48.902;9.204;2022-12-05T19:03:41;4.30;99.90
7143;DHT22;3613;48.902;9.204;2022-12-05T19:06:17;4.30;99.90
7143;DHT22;3613;48.902;9.204;2022-12-05T19:08:43;4.30;99.90
7143;DHT22;3613;48.902;9.204;2022-12-05T19:11:16;4.40;99.90
7143;DHT22;3613;48.902;9.204;2022-12-05T19:13:43;4.30;99.90
7143;DHT22;3613;48.902;9.204;2022-12-05T19:16:10;4.30;99.90
7143;DHT22;3613;48.902;9.204;2022-12-05T19:18:42;4.30;99.90
7143;DHT22;3613;48.902;9.204;2022-12-05T19:21:10;4.20;99.90
7143;DHT22;3613;48.902;9.204;2022-12-05T19:23:37;4.10;99.90
7143;DHT22;3613;48.902;9.204;2022-12-05T19:26:05;4.10;99.90
7143;DHT22;3613;48.902;9.204;2022-12-05T19:28:32;4.00;99.90
7143;DHT22;3613;48.902;9.204;2022-12-05T19:31:11;3.90;99.90
7143;DHT22;3613;48.902;9.204;2022-12-05T19:33:41;3.90;99.90
7143;DHT22;3613;48.902;9.204;2022-12-05T19:36:11;3.90;99.90
7143;DHT22;3613;48.902;9.204;2022-12-05T19:38:38;4.00;99.90
7143;DHT22;3613;48.902;9.204;2022-12-05T19:41:05;4.00;99.90
7143;DHT22;3613;48.902;9.204;2022-12-05T19:43:32;4.10;99.90
7143;DHT22;3613;48.902;9.204;2022-12-05T19:46:05;4.10;99.90